sensor_id;sensor_type;location;lat;lon;timestamp;temperature;humidity
10070;DHT22;5074;53.720;10.014;2023-06-22T00:01:26;17.20;99.90
10070;DHT22;5074;53.720;10.014;2023-06-22T00:03:54;17.20;99.90
10070;DHT22;5074;53.720;10.014;2023-06-22T00:06:22;17.20;99.90
10070;DHT22;5074;53.720;10.014;2023-06-22T00:08:50;17.10;99.90
10070;DHT22;5074;53.720;10.014;2023-06-22T00:11:18;17.00;99.90
10070;DHT22;5074;53.720;10.014;2023-06-22T00:13:46;16.90;99.90
10070;DHT22;5074;53.720;10.014;2023-06-22T00:16:17;16.80;99.90
10070;DHT22;5074;53.720;10.014;2023-06-22T00:18:45;16.80;99.90
10070;DHT22;5074;53.720;10.014;2023-06-22T00:21:14;16.90;99.90
10070;DHT22;5074;53.720;10.014;2023-06-22T00:23:42;17.00;99.90
10070;DHT22;5074;53.720;10.014;2023-06-22T00:26:10;17.10;99.90
10070;DHT22;5074;53.720;10.014;2023-06-22T00:28:39;17.10;99.90
10070;DHT22;5074;53.720;10.014;2023-06-22T00:31:07;17.10;99.90
10070;DHT22;5074;53.720;10.014;2023-06-22T00:33:36;17.10;99.90
10070;DHT22;5074;53.720;10.014;2023-06-22T00:36:05;17.00;99.90
10070;DHT22;5074;53.720;10.014;2023-06-22T00:38:34;16.90;99.90
10070;DHT22;5074;53.720;10.014;2023-06-22T00:41:06;16.80;99.90
10070;DHT22;5074;53.720;10.014;2023-06-22T00:43:35;16.80;99.90
10070;DHT22;5074;53.720;10.014;2023-06-22T00:46:03;16.90;99.90
10070;DHT22;5074;53.720;10.014;2023-06-22T00:48:31;17.00;99.90
10070;DHT22;5074;53.720;10.014;2023-06-22T00:51:01;17.10;99.90
10070;DHT22;5074;53.720;10.014;2023-06-22T00:53:29;17.10;99.90
10070;DHT22;5074;53.720;10.014;2023-06-22T00:56:02;17.10;99.90
10070;DHT22;5074;53.720;10.014;2023-06-22T00:58:30;17.10;99.90
10070;DHT22;5074;53.720;10.014;2023-06-22T01:00:59;17.00;99.90
10070;DHT22;5074;53.720;10.014;2023-06-22T01:03:28;17.00;99.90
10070;DHT22;5074;53.720;10.014;2023-06-22T01:05:58;16.90;99.90
10070;DHT22;5074;53.720;10.014;2023-06-22T01:08:38;17.00;99.90
10070;DHT22;5074;53.720;10.014;2023-06-22T01:11:16;17.00;99.90
10070;DHT22;5074;53.720;10.014;2023-06-22T01:13:49;17.00;99.90
10070;DHT22;5074;53.720;10.014;2023-06-22T01:16:25;17.00;99.90
10070;DHT22;5074;53.720;10.014;2023-06-22T01:18:57;17.00;99.90
10070;DHT22;5074;53.720;10.014;2023-06-22T01:21:29;16.90;99.90
10070;DHT22;5074;53.720;10.014;2023-06-22T01:24:02;16.90;99.90
10070;DHT22;5074;53.720;10.014;2023-06-22T01:26:43;16.90;99.90
10070;DHT22;5074;53.720;10.014;2023-06-22T01:29:23;16.70;99.90
10070;DHT22;5074;53.720;10.014;2023-06-22T01:31:53;16.60;99.90
10070;DHT22;5074;53.720;10.014;2023-06-22T01:34:23;16.60;99.90
10070;DHT22;5074;53.720;10.014;2023-06-22T01:36:52;16.60;99.90
10070;DHT22;5074;53.720;10.014;2023-06-22T01:39:21;16.70;99.90
10070;DHT22;5074;53.720;10.014;2023-06-22T01:41:50;16.70;99.90
10070;DHT22;5074;53.720;10.014;2023-06-22T01:44:19;16.70;99.90
10070;DHT22;5074;53.720;10.014;2023-06-22T01:46:50;16.60;99.90
10070;DHT22;5074;53.720;10.014;2023-06-22T01:49:20;16.70;99.90
10070;DHT22;5074;53.720;10.014;2023-06-22T01:51:48;16.80;99.90
10070;DHT22;5074;53.720;10.014;2023-06-22T01:54:16;16.70;99.90
10070;DHT22;5074;53.720;10.014;2023-06-22T01:56:44;16.60;99.90
10070;DHT22;5074;53.720;10.014;2023-06-22T01:59:14;16.50;99.90
10070;DHT22;5074;53.720;10.014;2023-06-22T02:01:48;16.50;99.90
10070;DHT22;5074;53.720;10.014;2023-06-22T02:04:26;16.60;99.90
10070;DHT22;5074;53.720;10.014;2023-06-22T02:07:01;16.60;99.90
10070;DHT22;5074;53.720;10.014;2023-06-22T02:09:36;16.60;99.90
10070;DHT22;5074;53.720;10.014;2023-06-22T02:12:06;16.70;99.90
10070;DHT22;5074;53.720;10.014;2023-06-22T02:14:37;16.70;99.90
10070;DHT22;5074;53.720;10.014;2023-06-22T02:17:07;16.70;99.90
10070;DHT22;5074;53.720;10.014;2023-06-22T02:19:37;16.70;99.90
10070;DHT22;5074;53.720;10.014;2023-06-22T02:22:05;16.80;99.90
10070;DHT22;5074;53.720;10.014;2023-06-22T02:24:33;16.70;99.90
10070;DHT22;5074;53.720;10.014;2023-06-22T02:27:02;16.70;99.90
10070;DHT22;5074;53.720;10.014;2023-06-22T02:29:31;16.80;99.90
10070;DHT22;5074;53.720;10.014;2023-06-22T02:31:59;16.70;99.90
10070;DHT22;5074;53.720;10.014;2023-06-22T02:34:29;16.70;99.90
10070;DHT22;5074;53.720;10.014;2023-06-22T02:36:57;16.70;99.90
10070;DHT22;5074;53.720;10.014;2023-06-22T02:39:26;16.70;99.90
10070;DHT22;5074;53.720;10.014;2023-06-22T02:41:55;16.70;99.90
10070;DHT22;5074;53.720;10.014;2023-06-22T02:44:23;16.50;99.90
10070;DHT22;5074;53.720;10.014;2023-06-22T02:46:51;16.50;99.90
10070;DHT22;5074;53.720;10.014;2023-06-22T02:49:20;16.40;99.90
10070;DHT22;5074;53.720;10.014;2023-06-22T02:51:50;16.40;99.90
10070;DHT22;5074;53.720;10.014;2023-06-22T02:54:18;16.60;99.90
10070;DHT22;5074;53.720;10.014;2023-06-22T02:56:47;16.70;99.90
10070;DHT22;5074;53.720;10.014;2023-06-22T02:59:17;16.70;99.90
10070;DHT22;5074;53.720;10.014;2023-06-22T03:01:50;16.60;99.90
10070;DHT22;5074;53.720;10.014;2023-06-22T03:04:18;16.50;99.90
10070;DHT22;5074;53.720;10.014;2023-06-22T03:06:46;16.40;99.90
10070;DHT22;5074;53.720;10.014;2023-06-22T03:09:19;16.40;99.90
10070;DHT22;5074;53.720;10.014;2023-06-22T03:11:47;16.50;99.90
10070;DHT22;5074;53.720;10.014;2023-06-22T03:14:15;16.40;99.90
10070;DHT22;5074;53.720;10.014;2023-06-22T03:16:43;16.40;99.90
10070;DHT22;5074;53.720;10.014;2023-06-22T03:19:12;16.40;99.90
10070;DHT22;5074;53.720;10.014;2023-06-22T03:21:40;16.40;99.90
10070;DHT22;5074;53.720;10.014;2023-06-22T03:24:08;16.30;99.90
10070;DHT22;5074;53.720;10.014;2023-06-22T03:26:37;16.40;99.90
10070;DHT22;5074;53.720;10.014;2023-06-22T03:29:05;16.40;99.90
10070;DHT22;5074;53.720;10.014;2023-06-22T03:31:33;16.40;99.90
10070;DHT22;5074;53.720;10.014;2023-06-22T03:34:01;16.40;99.90
10070;DHT22;5074;53.720;10.014;2023-06-22T03:36:29;16.40;99.90
10070;DHT22;5074;53.720;10.014;2023-06-22T03:38:58;16.40;99.90
10070;DHT22;5074;53.720;10.014;2023-06-22T03:41:26;16.30;99.90
10070;DHT22;5074;53.720;10.014;2023-06-22T03:43:55;16.20;99.90
10070;DHT22;5074;53.720;10.014;2023-06-22T03:46:23;16.30;99.90
10070;DHT22;5074;53.720;10.014;2023-06-22T03:48:52;16.30;99.90
10070;DHT22;5074;53.720;10.014;2023-06-22T03:51:20;16.30;99.90
10070;DHT22;5074;53.720;10.014;2023-06-22T03:53:48;16.30;99.90
10070;DHT22;5074;53.720;10.014;2023-06-22T03:56:17;16.30;99.90
10070;DHT22;5074;53.720;10.014;2023-06-22T03:58:47;16.30;99.90
10070;DHT22;5074;53.720;10.014;2023-06-22T04:01:16;16.40;99.90
10070;DHT22;5074;53.720;10.014;2023-06-22T04:03:44;16.40;99.90
10070;DHT22;5074;53.720;10.014;2023-06-22T04:06:15;16.50;99.90
10070;DHT22;5074;53.720;10.014;2023-06-22T04:08:44;16.40;99.90
10070;DHT22;5074;53.720;10.014;2023-06-22T04:11:17;16.40;99.90
10070;DHT22;5074;53.720;10.014;2023-06-22T04:13:45;16.50;99.90
10070;DHT22;5074;53.720;10.014;2023-06-22T04:16:20;16.60;99.90
10070;DHT22;5074;53.720;10.014;2023-06-22T04:19:04;16.70;99.90
10070;DHT22;5074;53.720;10.014;2023-06-22T04:21:47;16.80;99.90
10070;DHT22;5074;53.720;10.014;2023-06-22T04:24:16;16.90;99.90
10070;DHT22;5074;53.720;10.014;2023-06-22T04:26:44;17.10;99.90
10070;DHT22;5074;53.720;10.014;2023-06-22T04:29:13;17.10;99.90
10070;DHT22;5074;53.720;10.014;2023-06-22T04:31:43;17.20;99.90
10070;DHT22;5074;53.720;10.014;2023-06-22T04:34:11;17.20;99.90
10070;DHT22;5074;53.720;10.014;2023-06-22T04:36:40;17.20;99.90
10070;DHT22;5074;53.720;10.014;2023-06-22T04:39:09;17.20;99.90
10070;DHT22;5074;53.720;10.014;2023-06-22T04:41:39;17.20;99.90
10070;DHT22;5074;53.720;10.014;2023-06-22T04:44:10;17.20;99.90
10070;DHT22;5074;53.720;10.014;2023-06-22T04:46:39;17.30;99.90
10070;DHT22;5074;53.720;10.014;2023-06-22T04:49:09;17.40;99.90
10070;DHT22;5074;53.720;10.014;2023-06-22T04:51:39;17.30;99.90
10070;DHT22;5074;53.720;10.014;2023-06-22T04:54:08;17.30;99.90
10070;DHT22;5074;53.720;10.014;2023-06-22T04:56:37;17.40;99.90
10070;DHT22;5074;53.720;10.014;2023-06-22T04:59:07;17.40;99.90
10070;DHT22;5074;53.720;10.014;2023-06-22T05:01:39;17.40;99.90
10070;DHT22;5074;53.720;10.014;2023-06-22T05:04:12;17.60;99.90
10070;DHT22;5074;53.720;10.014;2023-06-22T05:06:40;17.60;99.90
10070;DHT22;5074;53.720;10.014;2023-06-22T05:09:08;17.60;99.90
10070;DHT22;5074;53.720;10.014;2023-06-22T05:11:38;17.60;99.90
10070;DHT22;5074;53.720;10.014;2023-06-22T05:14:06;17.70;99.90
10070;DHT22;5074;53.720;10.014;2023-06-22T05:16:35;17.70;99.90
10070;DHT22;5074;53.720;10.014;2023-06-22T05:19:04;17.70;99.90
10070;DHT22;5074;53.720;10.014;2023-06-22T05:21:33;17.80;99.90
10070;DHT22;5074;53.720;10.014;2023-06-22T05:24:02;17.80;99.90
10070;DHT22;5074;53.720;10.014;2023-06-22T05:26:30;17.90;99.90
10070;DHT22;5074;53.720;10.014;2023-06-22T05:29:00;18.00;99.90
10070;DHT22;5074;53.720;10.014;2023-06-22T05:31:29;18.00;99.90
10070;DHT22;5074;53.720;10.014;2023-06-22T05:33:58;18.00;99.90
10070;DHT22;5074;53.720;10.014;2023-06-22T05:36:26;18.00;99.90
10070;DHT22;5074;53.720;10.014;2023-06-22T05:38:56;18.10;99.90
10070;DHT22;5074;53.720;10.014;2023-06-22T05:41:24;18.10;99.90
10070;DHT22;5074;53.720;10.014;2023-06-22T05:43:52;18.10;99.90
10070;DHT22;5074;53.720;10.014;2023-06-22T05:46:21;18.10;99.90
10070;DHT22;5074;53.720;10.014;2023-06-22T05:48:49;18.10;99.90
10070;DHT22;5074;53.720;10.014;2023-06-22T05:51:17;18.20;99.90
10070;DHT22;5074;53.720;10.014;2023-06-22T05:53:45;18.20;99.90
10070;DHT22;5074;53.720;10.014;2023-06-22T05:56:17;18.30;99.90
10070;DHT22;5074;53.720;10.014;2023-06-22T05:58:45;18.40;99.90
10070;DHT22;5074;53.720;10.014;2023-06-22T06:01:15;18.40;99.90
10070;DHT22;5074;53.720;10.014;2023-06-22T06:03:43;18.50;99.90
10070;DHT22;5074;53.720;10.014;2023-06-22T06:06:11;18.60;99.90
10070;DHT22;5074;53.720;10.014;2023-06-22T06:08:39;18.70;99.90
10070;DHT22;5074;53.720;10.014;2023-06-22T06:11:08;18.80;99.90
10070;DHT22;5074;53.720;10.014;2023-06-22T06:13:38;18.90;99.90
10070;DHT22;5074;53.720;10.014;2023-06-22T06:16:06;18.80;99.90
10070;DHT22;5074;53.720;10.014;2023-06-22T06:18:34;18.90;99.90
10070;DHT22;5074;53.720;10.014;2023-06-22T06:21:03;18.80;99.90
10070;DHT22;5074;53.720;10.014;2023-06-22T06:23:32;18.80;99.90
10070;DHT22;5074;53.720;10.014;2023-06-22T06:26:00;18.80;99.90
10070;DHT22;5074;53.720;10.014;2023-06-22T06:28:28;18.80;99.90
10070;DHT22;5074;53.720;10.014;2023-06-22T06:30:57;18.80;99.90
10070;DHT22;5074;53.720;10.014;2023-06-22T06:33:25;18.80;99.90
10070;DHT22;5074;53.720;10.014;2023-06-22T06:35:54;18.80;99.90
10070;DHT22;5074;53.720;10.014;2023-06-22T06:38:22;18.80;99.90
10070;DHT22;5074;53.720;10.014;2023-06-22T06:40:50;18.80;99.90
10070;DHT22;5074;53.720;10.014;2023-06-22T06:43:19;18.80;99.90
10070;DHT22;5074;53.720;10.014;2023-06-22T06:45:47;18.70;99.90
10070;DHT22;5074;53.720;10.014;2023-06-22T06:48:19;18.70;99.90
10070;DHT22;5074;53.720;10.014;2023-06-22T06:50:47;18.80;99.90
10070;DHT22;5074;53.720;10.014;2023-06-22T06:53:16;18.80;99.90
10070;DHT22;5074;53.720;10.014;2023-06-22T06:55:44;18.90;99.90
10070;DHT22;5074;53.720;10.014;2023-06-22T06:58:13;19.00;99.90
10070;DHT22;5074;53.720;10.014;2023-06-22T07:00:41;19.10;99.90
10070;DHT22;5074;53.720;10.014;2023-06-22T07:03:10;19.30;99.90
10070;DHT22;5074;53.720;10.014;2023-06-22T07:05:39;19.40;99.90
10070;DHT22;5074;53.720;10.014;2023-06-22T07:08:07;19.50;99.90
10070;DHT22;5074;53.720;10.014;2023-06-22T07:10:36;19.50;99.90
10070;DHT22;5074;53.720;10.014;2023-06-22T07:13:04;19.80;99.90
10070;DHT22;5074;53.720;10.014;2023-06-22T07:15:32;20.00;99.90
10070;DHT22;5074;53.720;10.014;2023-06-22T07:18:00;20.10;99.90
10070;DHT22;5074;53.720;10.014;2023-06-22T07:20:28;20.20;99.90
10070;DHT22;5074;53.720;10.014;2023-06-22T07:22:58;20.30;99.90
10070;DHT22;5074;53.720;10.014;2023-06-22T07:25:26;20.50;99.90
10070;DHT22;5074;53.720;10.014;2023-06-22T07:27:58;20.50;99.90
10070;DHT22;5074;53.720;10.014;2023-06-22T07:30:28;20.50;99.90
10070;DHT22;5074;53.720;10.014;2023-06-22T07:32:57;20.50;99.90
10070;DHT22;5074;53.720;10.014;2023-06-22T07:35:30;20.50;99.90
10070;DHT22;5074;53.720;10.014;2023-06-22T07:37:59;20.70;99.90
10070;DHT22;5074;53.720;10.014;2023-06-22T07:40:31;20.70;99.90
10070;DHT22;5074;53.720;10.014;2023-06-22T07:43:00;20.80;99.90
10070;DHT22;5074;53.720;10.014;2023-06-22T07:45:28;20.80;99.90
10070;DHT22;5074;53.720;10.014;2023-06-22T07:47:56;20.80;99.90
10070;DHT22;5074;53.720;10.014;2023-06-22T07:50:25;20.90;99.90
10070;DHT22;5074;53.720;10.014;2023-06-22T07:52:54;21.00;99.90
10070;DHT22;5074;53.720;10.014;2023-06-22T07:55:23;21.10;99.90
10070;DHT22;5074;53.720;10.014;2023-06-22T07:57:52;21.20;99.90
10070;DHT22;5074;53.720;10.014;2023-06-22T08:00:20;21.30;99.90
10070;DHT22;5074;53.720;10.014;2023-06-22T08:02:48;21.40;99.90
10070;DHT22;5074;53.720;10.014;2023-06-22T08:05:17;21.50;99.90
10070;DHT22;5074;53.720;10.014;2023-06-22T08:07:48;21.60;99.90
10070;DHT22;5074;53.720;10.014;2023-06-22T08:10:17;21.40;99.90
10070;DHT22;5074;53.720;10.014;2023-06-22T08:12:48;21.50;99.90
10070;DHT22;5074;53.720;10.014;2023-06-22T08:15:16;21.50;99.90
10070;DHT22;5074;53.720;10.014;2023-06-22T08:17:44;21.60;99.90
10070;DHT22;5074;53.720;10.014;2023-06-22T08:20:13;21.70;99.90
10070;DHT22;5074;53.720;10.014;2023-06-22T08:22:41;21.90;99.90
10070;DHT22;5074;53.720;10.014;2023-06-22T08:25:10;21.90;99.90
10070;DHT22;5074;53.720;10.014;2023-06-22T08:27:39;22.00;99.90
10070;DHT22;5074;53.720;10.014;2023-06-22T08:30:09;22.00;99.90
10070;DHT22;5074;53.720;10.014;2023-06-22T08:32:38;22.00;99.90
10070;DHT22;5074;53.720;10.014;2023-06-22T08:35:07;22.00;99.90
10070;DHT22;5074;53.720;10.014;2023-06-22T08:37:36;22.10;99.90
10070;DHT22;5074;53.720;10.014;2023-06-22T08:40:06;22.20;99.90
10070;DHT22;5074;53.720;10.014;2023-06-22T08:42:37;22.20;99.90
10070;DHT22;5074;53.720;10.014;2023-06-22T08:45:10;22.30;99.90
10070;DHT22;5074;53.720;10.014;2023-06-22T08:47:38;22.20;99.90
10070;DHT22;5074;53.720;10.014;2023-06-22T08:50:08;22.20;99.90
10070;DHT22;5074;53.720;10.014;2023-06-22T08:52:37;22.10;99.90
10070;DHT22;5074;53.720;10.014;2023-06-22T08:55:08;22.10;99.90
10070;DHT22;5074;53.720;10.014;2023-06-22T08:57:37;22.10;99.90
10070;DHT22;5074;53.720;10.014;2023-06-22T09:00:07;22.20;99.90
10070;DHT22;5074;53.720;10.014;2023-06-22T09:02:47;22.30;99.90
10070;DHT22;5074;53.720;10.014;2023-06-22T09:05:16;22.40;99.90
10070;DHT22;5074;53.720;10.014;2023-06-22T09:07:45;22.40;99.90
10070;DHT22;5074;53.720;10.014;2023-06-22T09:10:13;22.40;99.90
10070;DHT22;5074;53.720;10.014;2023-06-22T09:12:44;22.60;99.90
10070;DHT22;5074;53.720;10.014;2023-06-22T09:15:12;22.50;99.90
10070;DHT22;5074;53.720;10.014;2023-06-22T09:17:44;22.60;99.90
10070;DHT22;5074;53.720;10.014;2023-06-22T09:20:14;22.60;99.90
10070;DHT22;5074;53.720;10.014;2023-06-22T09:22:43;22.70;99.90
10070;DHT22;5074;53.720;10.014;2023-06-22T09:25:11;22.70;99.90
10070;DHT22;5074;53.720;10.014;2023-06-22T09:27:40;23.00;99.90
10070;DHT22;5074;53.720;10.014;2023-06-22T09:30:08;23.00;99.90
10070;DHT22;5074;53.720;10.014;2023-06-22T09:32:37;23.20;99.90
10070;DHT22;5074;53.720;10.014;2023-06-22T09:35:05;23.20;99.90
10070;DHT22;5074;53.720;10.014;2023-06-22T09:37:36;23.40;99.90
10070;DHT22;5074;53.720;10.014;2023-06-22T09:40:05;23.70;99.90
10070;DHT22;5074;53.720;10.014;2023-06-22T09:42:37;23.80;99.90
10070;DHT22;5074;53.720;10.014;2023-06-22T09:45:06;23.90;99.90
10070;DHT22;5074;53.720;10.014;2023-06-22T09:47:35;24.00;99.90
10070;DHT22;5074;53.720;10.014;2023-06-22T09:50:04;24.10;99.90
10070;DHT22;5074;53.720;10.014;2023-06-22T09:52:33;24.10;99.90
10070;DHT22;5074;53.720;10.014;2023-06-22T09:55:15;24.30;99.90
10070;DHT22;5074;53.720;10.014;2023-06-22T09:57:44;24.20;99.90
10070;DHT22;5074;53.720;10.014;2023-06-22T10:00:12;24.20;99.90
10070;DHT22;5074;53.720;10.014;2023-06-22T10:02:42;24.10;99.90
10070;DHT22;5074;53.720;10.014;2023-06-22T10:05:10;24.10;99.90
10070;DHT22;5074;53.720;10.014;2023-06-22T10:07:39;24.20;99.90
10070;DHT22;5074;53.720;10.014;2023-06-22T10:10:10;24.40;99.90
10070;DHT22;5074;53.720;10.014;2023-06-22T10:12:45;24.40;99.90
10070;DHT22;5074;53.720;10.014;2023-06-22T10:15:15;24.50;99.90
10070;DHT22;5074;53.720;10.014;2023-06-22T10:17:43;24.70;99.90
10070;DHT22;5074;53.720;10.014;2023-06-22T10:20:11;24.70;99.90
10070;DHT22;5074;53.720;10.014;2023-06-22T10:22:40;24.90;99.90
10070;DHT22;5074;53.720;10.014;2023-06-22T10:25:09;24.80;99.90
10070;DHT22;5074;53.720;10.014;2023-06-22T10:27:40;24.80;99.90
10070;DHT22;5074;53.720;10.014;2023-06-22T10:30:10;25.00;99.90
10070;DHT22;5074;53.720;10.014;2023-06-22T10:32:40;24.90;99.90
10070;DHT22;5074;53.720;10.014;2023-06-22T10:35:09;25.00;99.90
10070;DHT22;5074;53.720;10.014;2023-06-22T10:37:40;25.00;99.90
10070;DHT22;5074;53.720;10.014;2023-06-22T10:40:10;25.00;99.90
10070;DHT22;5074;53.720;10.014;2023-06-22T10:42:39;25.00;99.90
10070;DHT22;5074;53.720;10.014;2023-06-22T10:45:08;25.00;99.90
10070;DHT22;5074;53.720;10.014;2023-06-22T10:47:38;24.90;99.90
10070;DHT22;5074;53.720;10.014;2023-06-22T10:50:10;24.90;99.90
10070;DHT22;5074;53.720;10.014;2023-06-22T10:52:42;25.00;99.90
10070;DHT22;5074;53.720;10.014;2023-06-22T10:55:10;25.20;99.90
10070;DHT22;5074;53.720;10.014;2023-06-22T10:57:38;25.20;99.90
10070;DHT22;5074;53.720;10.014;2023-06-22T11:00:12;25.30;99.90
10070;DHT22;5074;53.720;10.014;2023-06-22T11:02:42;25.40;99.90
10070;DHT22;5074;53.720;10.014;2023-06-22T11:05:10;25.60;99.90
10070;DHT22;5074;53.720;10.014;2023-06-22T11:07:41;25.40;99.90
10070;DHT22;5074;53.720;10.014;2023-06-22T11:10:14;25.40;99.90
10070;DHT22;5074;53.720;10.014;2023-06-22T11:12:43;25.30;99.90
10070;DHT22;5074;53.720;10.014;2023-06-22T11:15:12;25.30;99.90
10070;DHT22;5074;53.720;10.014;2023-06-22T11:17:40;25.40;99.90
10070;DHT22;5074;53.720;10.014;2023-06-22T11:20:09;25.50;99.90
10070;DHT22;5074;53.720;10.014;2023-06-22T11:22:52;25.50;99.90
10070;DHT22;5074;53.720;10.014;2023-06-22T11:25:20;25.60;99.90
10070;DHT22;5074;53.720;10.014;2023-06-22T11:27:48;25.70;99.90
10070;DHT22;5074;53.720;10.014;2023-06-22T11:30:17;25.90;99.90
10070;DHT22;5074;53.720;10.014;2023-06-22T11:32:46;26.20;99.90
10070;DHT22;5074;53.720;10.014;2023-06-22T11:35:14;26.50;99.90
10070;DHT22;5074;53.720;10.014;2023-06-22T11:37:43;26.80;99.90
10070;DHT22;5074;53.720;10.014;2023-06-22T11:40:12;27.00;99.90
10070;DHT22;5074;53.720;10.014;2023-06-22T11:42:40;26.80;99.90
10070;DHT22;5074;53.720;10.014;2023-06-22T11:45:08;26.80;99.90
10070;DHT22;5074;53.720;10.014;2023-06-22T11:47:38;26.90;99.90
10070;DHT22;5074;53.720;10.014;2023-06-22T11:50:07;27.00;99.90
10070;DHT22;5074;53.720;10.014;2023-06-22T11:52:35;27.00;99.90
10070;DHT22;5074;53.720;10.014;2023-06-22T11:55:04;27.00;99.90
10070;DHT22;5074;53.720;10.014;2023-06-22T11:57:33;27.10;99.90
10070;DHT22;5074;53.720;10.014;2023-06-22T12:00:02;27.20;99.90
10070;DHT22;5074;53.720;10.014;2023-06-22T12:02:45;27.40;99.90
10070;DHT22;5074;53.720;10.014;2023-06-22T12:05:13;27.70;99.90
10070;DHT22;5074;53.720;10.014;2023-06-22T12:07:41;27.80;99.90
10070;DHT22;5074;53.720;10.014;2023-06-22T12:10:10;27.80;99.90
10070;DHT22;5074;53.720;10.014;2023-06-22T12:12:38;27.70;99.90
10070;DHT22;5074;53.720;10.014;2023-06-22T12:15:06;27.60;99.90
10070;DHT22;5074;53.720;10.014;2023-06-22T12:17:34;27.50;99.90
10070;DHT22;5074;53.720;10.014;2023-06-22T12:20:05;27.30;99.90
10070;DHT22;5074;53.720;10.014;2023-06-22T12:22:34;27.00;99.90
10070;DHT22;5074;53.720;10.014;2023-06-22T12:25:04;27.10;99.90
10070;DHT22;5074;53.720;10.014;2023-06-22T12:27:33;27.00;99.90
10070;DHT22;5074;53.720;10.014;2023-06-22T12:30:02;27.00;99.90
10070;DHT22;5074;53.720;10.014;2023-06-22T12:32:30;27.10;99.90
10070;DHT22;5074;53.720;10.014;2023-06-22T12:34:58;27.30;99.90
10070;DHT22;5074;53.720;10.014;2023-06-22T12:37:28;27.50;99.90
10070;DHT22;5074;53.720;10.014;2023-06-22T12:39:58;27.40;99.90
10070;DHT22;5074;53.720;10.014;2023-06-22T12:42:26;27.20;99.90
10070;DHT22;5074;53.720;10.014;2023-06-22T12:44:54;27.00;99.90
10070;DHT22;5074;53.720;10.014;2023-06-22T12:47:22;27.00;99.90
10070;DHT22;5074;53.720;10.014;2023-06-22T12:49:50;27.40;99.90
10070;DHT22;5074;53.720;10.014;2023-06-22T12:52:19;28.40;99.90
10070;DHT22;5074;53.720;10.014;2023-06-22T12:54:48;29.70;99.90
10070;DHT22;5074;53.720;10.014;2023-06-22T12:57:21;30.50;99.90
10070;DHT22;5074;53.720;10.014;2023-06-22T12:59:50;31.10;99.90
10070;DHT22;5074;53.720;10.014;2023-06-22T13:02:18;32.10;99.90
10070;DHT22;5074;53.720;10.014;2023-06-22T13:04:46;32.40;99.90
10070;DHT22;5074;53.720;10.014;2023-06-22T13:07:14;33.50;99.90
10070;DHT22;5074;53.720;10.014;2023-06-22T13:09:50;33.60;98.30
10070;DHT22;5074;53.720;10.014;2023-06-22T13:12:19;33.90;97.80
10070;DHT22;5074;53.720;10.014;2023-06-22T13:14:48;34.00;98.70
10070;DHT22;5074;53.720;10.014;2023-06-22T13:17:16;33.90;98.00
10070;DHT22;5074;53.720;10.014;2023-06-22T13:19:45;33.30;98.10
10070;DHT22;5074;53.720;10.014;2023-06-22T13:24:58;33.70;98.00
10070;DHT22;5074;53.720;10.014;2023-06-22T13:27:28;34.10;97.00
10070;DHT22;5074;53.720;10.014;2023-06-22T13:29:56;33.90;97.50
10070;DHT22;5074;53.720;10.014;2023-06-22T13:32:25;33.90;97.00
10070;DHT22;5074;53.720;10.014;2023-06-22T13:34:53;34.20;96.80
10070;DHT22;5074;53.720;10.014;2023-06-22T13:37:21;33.90;97.00
10070;DHT22;5074;53.720;10.014;2023-06-22T13:39:49;34.10;96.20
10070;DHT22;5074;53.720;10.014;2023-06-22T13:42:19;34.70;96.20
10070;DHT22;5074;53.720;10.014;2023-06-22T13:44:47;34.70;95.00
10070;DHT22;5074;53.720;10.014;2023-06-22T13:47:15;33.30;96.20
10070;DHT22;5074;53.720;10.014;2023-06-22T13:49:43;32.40;97.60
10070;DHT22;5074;53.720;10.014;2023-06-22T13:52:11;32.20;97.60
10070;DHT22;5074;53.720;10.014;2023-06-22T13:54:39;31.40;97.80
10070;DHT22;5074;53.720;10.014;2023-06-22T13:57:07;31.20;97.70
10070;DHT22;5074;53.720;10.014;2023-06-22T13:59:37;30.30;98.80
10070;DHT22;5074;53.720;10.014;2023-06-22T14:02:05;29.70;99.70
10070;DHT22;5074;53.720;10.014;2023-06-22T14:04:34;29.50;99.30
10070;DHT22;5074;53.720;10.014;2023-06-22T14:07:02;29.50;99.70
10070;DHT22;5074;53.720;10.014;2023-06-22T14:09:30;29.60;99.90
10070;DHT22;5074;53.720;10.014;2023-06-22T14:12:01;29.70;99.90
10070;DHT22;5074;53.720;10.014;2023-06-22T14:14:32;29.90;99.90
10070;DHT22;5074;53.720;10.014;2023-06-22T14:17:02;29.50;99.90
10070;DHT22;5074;53.720;10.014;2023-06-22T14:19:31;29.20;99.90
10070;DHT22;5074;53.720;10.014;2023-06-22T14:21:59;28.80;99.90
10070;DHT22;5074;53.720;10.014;2023-06-22T14:24:27;28.40;99.90
10070;DHT22;5074;53.720;10.014;2023-06-22T14:26:56;28.30;99.90
10070;DHT22;5074;53.720;10.014;2023-06-22T14:29:25;28.30;99.90
10070;DHT22;5074;53.720;10.014;2023-06-22T14:31:53;28.70;99.90
10070;DHT22;5074;53.720;10.014;2023-06-22T14:34:23;29.00;99.90
10070;DHT22;5074;53.720;10.014;2023-06-22T14:36:51;29.10;99.90
10070;DHT22;5074;53.720;10.014;2023-06-22T14:39:19;29.70;99.90
10070;DHT22;5074;53.720;10.014;2023-06-22T14:41:48;30.60;99.90
10070;DHT22;5074;53.720;10.014;2023-06-22T14:44:16;30.90;99.30
10070;DHT22;5074;53.720;10.014;2023-06-22T14:46:44;30.40;99.20
10070;DHT22;5074;53.720;10.014;2023-06-22T14:49:12;29.60;99.80
10070;DHT22;5074;53.720;10.014;2023-06-22T14:51:42;29.10;99.90
10070;DHT22;5074;53.720;10.014;2023-06-22T14:54:10;29.10;99.90
10070;DHT22;5074;53.720;10.014;2023-06-22T14:56:38;29.00;99.90
10070;DHT22;5074;53.720;10.014;2023-06-22T14:59:07;29.10;99.90
10070;DHT22;5074;53.720;10.014;2023-06-22T15:01:35;28.80;99.90
10070;DHT22;5074;53.720;10.014;2023-06-22T15:04:06;28.50;99.90
10070;DHT22;5074;53.720;10.014;2023-06-22T15:06:34;27.90;99.90
10070;DHT22;5074;53.720;10.014;2023-06-22T15:09:03;27.70;99.90
10070;DHT22;5074;53.720;10.014;2023-06-22T15:11:31;27.40;99.90
10070;DHT22;5074;53.720;10.014;2023-06-22T15:14:00;27.20;99.90
10070;DHT22;5074;53.720;10.014;2023-06-22T15:16:28;27.10;99.90
10070;DHT22;5074;53.720;10.014;2023-06-22T15:18:56;27.10;99.90
10070;DHT22;5074;53.720;10.014;2023-06-22T15:21:24;27.00;99.90
10070;DHT22;5074;53.720;10.014;2023-06-22T15:23:53;26.80;99.90
10070;DHT22;5074;53.720;10.014;2023-06-22T15:26:22;26.60;99.90
10070;DHT22;5074;53.720;10.014;2023-06-22T15:28:51;26.40;99.90
10070;DHT22;5074;53.720;10.014;2023-06-22T15:31:19;26.30;99.90
10070;DHT22;5074;53.720;10.014;2023-06-22T15:33:47;26.20;99.90
10070;DHT22;5074;53.720;10.014;2023-06-22T15:36:15;26.20;99.90
10070;DHT22;5074;53.720;10.014;2023-06-22T15:38:43;26.10;99.90
10070;DHT22;5074;53.720;10.014;2023-06-22T15:41:13;26.00;99.90
10070;DHT22;5074;53.720;10.014;2023-06-22T15:43:42;25.90;99.90
10070;DHT22;5074;53.720;10.014;2023-06-22T15:46:19;25.80;99.90